sensor_id;sensor_type;location;lat;lon;timestamp;temperature;humidity
49901;DHT22;35789;48.414;12.768;2024-01-30T00:00:00;-1.3;99.9
49901;DHT22;35789;48.414;12.768;2024-01-30T00:05:00;-1.3;99.9
49901;DHT22;35789;48.414;12.768;2024-01-30T00:10:00;-1.3;99.9
49901;DHT22;35789;48.414;12.768;2024-01-30T00:15:00;-1.4;99.9
49901;DHT22;35789;48.414;12.768;2024-01-30T00:20:00;-1.4;99.9
49901;DHT22;35789;48.414;12.768;2024-01-30T00:25:00;-1.4;99.9
49901;DHT22;35789;48.414;12.768;2024-01-30T00:30:00;-1.5;99.9
49901;DHT22;35789;48.414;12.768;2024-01-30T00:35:00;-1.5;99.9
49901;DHT22;35789;48.414;12.768;2024-01-30T00:40:00;-1.6;99.9
49901;DHT22;35789;48.414;12.768;2024-01-30T00:45:00;-1.6;99.9
49901;DHT22;35789;48.414;12.768;2024-01-30T00:50:00;-1.6;99.9
49901;DHT22;35789;48.414;12.768;2024-01-30T00:55:00;-1.7;99.9
49901;DHT22;35789;48.414;12.768;2024-01-30T01:00:00;-1.7;99.9
49901;DHT22;35789;48.414;12.768;2024-01-30T01:05:00;-1.7;99.9
49901;DHT22;35789;48.414;12.768;2024-01-30T01:10:00;-1.8;99.9
49901;DHT22;35789;48.414;12.768;2024-01-30T01:15:00;-1.8;99.9
49901;DHT22;35789;48.414;12.768;2024-01-30T01:20:00;-1.8;99.9
49901;DHT22;35789;48.414;12.768;2024-01-30T01:25:00;-1.9;99.9
49901;DHT22;35789;48.414;12.768;2024-01-30T01:30:00;-1.9;99.9
49901;DHT22;35789;48.414;12.768;2024-01-30T01:35:00;-1.9;99.9
49901;DHT22;35789;48.414;12.768;2024-01-30T01:40:00;-1.9;99.9
49901;DHT22;35789;48.414;12.768;2024-01-30T01:45:00;-2.0;99.9
49901;DHT22;35789;48.414;12.768;2024-01-30T01:50:00;-2.0;99.9
49901;DHT22;35789;48.414;12.768;2024-01-30T01:55:00;-2.0;99.9
49901;DHT22;35789;48.414;12.768;2024-01-30T02:00:00;-2.0;99.9
49901;DHT22;35789;48.414;12.768;2024-01-30T02:05:00;-2.1;99.9
49901;DHT22;35789;48.414;12.768;2024-01-30T02:10:00;-2.1;99.9
49901;DHT22;35789;48.414;12.768;2024-01-30T02:15:00;-2.2;99.9
49901;DHT22;35789;48.414;12.768;2024-01-30T02:20:00;-2.2;99.9
49901;DHT22;35789;48.414;12.768;2024-01-30T02:25:00;-2.3;99.9
49901;DHT22;35789;48.414;12.768;2024-01-30T02:30:00;-2.3;99.9
49901;DHT22;35789;48.414;12.768;2024-01-30T02:35:00;-2.3;99.9
49901;DHT22;35789;48.414;12.768;2024-01-30T02:40:00;-2.3;99.9
49901;DHT22;35789;48.414;12.768;2024-01-30T02:45:00;-2.3;99.9
49901;DHT22;35789;48.414;12.768;2024-01-30T02:50:00;-2.4;99.9
49901;DHT22;35789;48.414;12.768;2024-01-30T02:55:00;-2.4;99.9
49901;DHT22;35789;48.414;12.768;2024-01-30T03:00:00;-2.4;99.9
49901;DHT22;35789;48.414;12.768;2024-01-30T03:05:00;-2.4;99.9
49901;DHT22;35789;48.414;12.768;2024-01-30T03:10:00;-2.5;99.9
49901;DHT22;35789;48.414;12.768;2024-01-30T03:15:00;-2.4;99.9
49901;DHT22;35789;48.414;12.768;2024-01-30T03:20:00;-2.5;99.9
49901;DHT22;35789;48.414;12.768;2024-01-30T03:25:00;-2.5;99.9
49901;DHT22;35789;48.414;12.768;2024-01-30T03:30:00;-2.6;99.9
49901;DHT22;35789;48.414;12.768;2024-01-30T03:35:00;-2.6;99.9
49901;DHT22;35789;48.414;12.768;2024-01-30T03:40:00;-2.6;99.9
49901;DHT22;35789;48.414;12.768;2024-01-30T03:45:00;-2.6;99.9
49901;DHT22;35789;48.414;12.768;2024-01-30T03:50:00;-2.6;99.9
49901;DHT22;35789;48.414;12.768;2024-01-30T03:55:00;-2.6;99.9
49901;DHT22;35789;48.414;12.768;2024-01-30T04:00:00;-2.7;99.9
49901;DHT22;35789;48.414;12.768;2024-01-30T04:05:00;-2.7;99.9
49901;DHT22;35789;48.414;12.768;2024-01-30T04:10:00;-2.7;99.9
49901;DHT22;35789;48.414;12.768;2024-01-30T04:15:00;-2.7;99.9
49901;DHT22;35789;48.414;12.768;2024-01-30T04:20:00;-2.7;99.9
49901;DHT22;35789;48.414;12.768;2024-01-30T04:25:00;-2.7;99.9
49901;DHT22;35789;48.414;12.768;2024-01-30T04:30:00;-2.8;99.9
49901;DHT22;35789;48.414;12.768;2024-01-30T04:35:00;-2.8;99.9
49901;DHT22;35789;48.414;12.768;2024-01-30T04:40:00;-2.9;99.9
49901;DHT22;35789;48.414;12.768;2024-01-30T04:45:00;-2.9;99.9
49901;DHT22;35789;48.414;12.768;2024-01-30T04:50:00;-2.9;99.9
49901;DHT22;35789;48.414;12.768;2024-01-30T04:55:00;-2.9;99.9
49901;DHT22;35789;48.414;12.768;2024-01-30T05:00:00;-2.9;99.9
49901;DHT22;35789;48.414;12.768;2024-01-30T05:05:00;-2.8;99.9
49901;DHT22;35789;48.414;12.768;2024-01-30T05:10:00;-2.9;99.9
49901;DHT22;35789;48.414;12.768;2024-01-30T05:15:00;-3.0;99.9
49901;DHT22;35789;48.414;12.768;2024-01-30T05:20:00;-3.0;99.9
49901;DHT22;35789;48.414;12.768;2024-01-30T05:25:00;-3.0;99.9
49901;DHT22;35789;48.414;12.768;2024-01-30T05:30:00;-3.0;99.9
49901;DHT22;35789;48.414;12.768;2024-01-30T05:35:00;-3.0;99.9
49901;DHT22;35789;48.414;12.768;2024-01-30T05:40:00;-3.1;99.9
49901;DHT22;35789;48.414;12.768;2024-01-30T05:45:00;-3.1;99.9
49901;DHT22;35789;48.414;12.768;2024-01-30T05:50:00;-3.1;99.9
49901;DHT22;35789;48.414;12.768;2024-01-30T05:55:00;-3.1;99.9
49901;DHT22;35789;48.414;12.768;2024-01-30T06:00:00;-3.1;99.9
49901;DHT22;35789;48.414;12.768;2024-01-30T06:05:00;-3.1;99.9
49901;DHT22;35789;48.414;12.768;2024-01-30T06:10:00;-3.2;99.9
49901;DHT22;35789;48.414;12.768;2024-01-30T06:15:00;-3.2;99.9
49901;DHT22;35789;48.414;12.768;2024-01-30T06:20:00;-3.2;99.9
49901;DHT22;35789;48.414;12.768;2024-01-30T06:25:00;-3.1;99.9
49901;DHT22;35789;48.414;12.768;2024-01-30T06:30:02;-3.1;99.9
49901;DHT22;35789;48.414;12.768;2024-01-30T06:35:00;-3.1;99.9
49901;DHT22;35789;48.414;12.768;2024-01-30T06:40:00;-3.2;99.9
49901;DHT22;35789;48.414;12.768;2024-01-30T06:45:00;-3.2;99.9
49901;DHT22;35789;48.414;12.768;2024-01-30T06:50:00;-3.2;99.9
49901;DHT22;35789;48.414;12.768;2024-01-30T06:55:00;-3.2;99.9
49901;DHT22;35789;48.414;12.768;2024-01-30T07:00:00;-3.2;99.9
49901;DHT22;35789;48.414;12.768;2024-01-30T07:05:00;-3.2;99.9
49901;DHT22;35789;48.414;12.768;2024-01-30T07:10:00;-3.2;99.9
49901;DHT22;35789;48.414;12.768;2024-01-30T07:15:00;-3.2;99.9
49901;DHT22;35789;48.414;12.768;2024-01-30T07:20:00;-3.2;99.9
49901;DHT22;35789;48.414;12.768;2024-01-30T07:25:00;-3.2;99.9
49901;DHT22;35789;48.414;12.768;2024-01-30T07:30:00;-3.1;99.9
49901;DHT22;35789;48.414;12.768;2024-01-30T07:35:00;-3.0;99.9
49901;DHT22;35789;48.414;12.768;2024-01-30T07:40:00;-3.0;99.9
49901;DHT22;35789;48.414;12.768;2024-01-30T07:45:00;-3.0;99.9
49901;DHT22;35789;48.414;12.768;2024-01-30T07:50:00;-2.9;99.9
49901;DHT22;35789;48.414;12.768;2024-01-30T07:55:00;-2.9;99.9
49901;DHT22;35789;48.414;12.768;2024-01-30T08:00:00;-2.8;99.9
49901;DHT22;35789;48.414;12.768;2024-01-30T08:05:00;-2.8;99.9
49901;DHT22;35789;48.414;12.768;2024-01-30T08:10:00;-2.7;99.9
49901;DHT22;35789;48.414;12.768;2024-01-30T08:15:00;-2.7;99.9
49901;DHT22;35789;48.414;12.768;2024-01-30T08:20:00;-2.6;99.9
49901;DHT22;35789;48.414;12.768;2024-01-30T08:25:00;-2.5;99.9
49901;DHT22;35789;48.414;12.768;2024-01-30T08:30:00;-2.4;99.9
49901;DHT22;35789;48.414;12.768;2024-01-30T08:35:00;-2.4;99.9
49901;DHT22;35789;48.414;12.768;2024-01-30T08:40:00;-2.3;99.9
49901;DHT22;35789;48.414;12.768;2024-01-30T08:45:00;-2.2;99.9
49901;DHT22;35789;48.414;12.768;2024-01-30T08:50:00;-2.2;99.9
49901;DHT22;35789;48.414;12.768;2024-01-30T08:55:00;-2.1;99.9
49901;DHT22;35789;48.414;12.768;2024-01-30T09:00:00;-2.0;99.9
49901;DHT22;35789;48.414;12.768;2024-01-30T09:05:00;-1.9;99.9
49901;DHT22;35789;48.414;12.768;2024-01-30T09:10:00;-1.9;99.9
49901;DHT22;35789;48.414;12.768;2024-01-30T09:15:00;-1.7;99.9
49901;DHT22;35789;48.414;12.768;2024-01-30T09:20:00;-1.7;99.9
49901;DHT22;35789;48.414;12.768;2024-01-30T09:25:00;-1.5;99.9
49901;DHT22;35789;48.414;12.768;2024-01-30T09:30:00;-1.4;99.9
49901;DHT22;35789;48.414;12.768;2024-01-30T09:35:00;-1.2;99.9
49901;DHT22;35789;48.414;12.768;2024-01-30T09:40:00;-1.1;99.9
49901;DHT22;35789;48.414;12.768;2024-01-30T09:45:00;-1.0;99.9
49901;DHT22;35789;48.414;12.768;2024-01-30T09:50:00;-0.9;99.9
49901;DHT22;35789;48.414;12.768;2024-01-30T09:55:00;-0.8;99.9
49901;DHT22;35789;48.414;12.768;2024-01-30T10:00:00;-0.7;99.9
49901;DHT22;35789;48.414;12.768;2024-01-30T10:05:00;-0.5;99.9
49901;DHT22;35789;48.414;12.768;2024-01-30T10:10:02;-0.4;99.9
49901;DHT22;35789;48.414;12.768;2024-01-30T10:15:00;-0.3;99.9
49901;DHT22;35789;48.414;12.768;2024-01-30T10:20:00;-0.2;99.9
49901;DHT22;35789;48.414;12.768;2024-01-30T10:25:00;0.0;99.9
49901;DHT22;35789;48.414;12.768;2024-01-30T10:30:00;0.3;99.9
49901;DHT22;35789;48.414;12.768;2024-01-30T10:35:00;0.4;99.9
49901;DHT22;35789;48.414;12.768;2024-01-30T10:40:01;0.4;99.9
49901;DHT22;35789;48.414;12.768;2024-01-30T10:45:02;0.4;99.9
49901;DHT22;35789;48.414;12.768;2024-01-30T10:50:00;0.6;99.9
49901;DHT22;35789;48.414;12.768;2024-01-30T10:55:00;0.8;99.9
49901;DHT22;35789;48.414;12.768;2024-01-30T11:00:00;0.9;99.9
49901;DHT22;35789;48.414;12.768;2024-01-30T11:05:00;1.0;99.9
49901;DHT22;35789;48.414;12.768;2024-01-30T11:10:00;1.1;99.9
49901;DHT22;35789;48.414;12.768;2024-01-30T11:15:01;1.2;99.9
49901;DHT22;35789;48.414;12.768;2024-01-30T11:20:00;1.3;99.9
49901;DHT22;35789;48.414;12.768;2024-01-30T11:25:00;1.4;99.9
49901;DHT22;35789;48.414;12.768;2024-01-30T11:30:01;1.6;99.9
49901;DHT22;35789;48.414;12.768;2024-01-30T11:35:00;1.6;99.9
49901;DHT22;35789;48.414;12.768;2024-01-30T11:40:00;1.7;99.9
49901;DHT22;35789;48.414;12.768;2024-01-30T11:45:00;1.8;99.9
49901;DHT22;35789;48.414;12.768;2024-01-30T11:50:00;1.9;99.9
49901;DHT22;35789;48.414;12.768;2024-01-30T11:55:00;2.1;99.9
49901;DHT22;35789;48.414;12.768;2024-01-30T12:00:00;2.2;99.9
49901;DHT22;35789;48.414;12.768;2024-01-30T12:05:02;2.2;99.9
49901;DHT22;35789;48.414;12.768;2024-01-30T12:10:00;2.3;99.9
49901;DHT22;35789;48.414;12.768;2024-01-30T12:15:00;2.3;99.9
49901;DHT22;35789;48.414;12.768;2024-01-30T12:20:04;2.4;99.9
49901;DHT22;35789;48.414;12.768;2024-01-30T12:35:00;2.5;99.9
49901;DHT22;35789;48.414;12.768;2024-01-30T12:40:00;2.6;99.9
49901;DHT22;35789;48.414;12.768;2024-01-30T12:45:00;2.6;99.9
49901;DHT22;35789;48.414;12.768;2024-01-30T12:50:00;2.7;99.9
49901;DHT22;35789;48.414;12.768;2024-01-30T12:55:00;2.7;99.9
49901;DHT22;35789;48.414;12.768;2024-01-30T13:00:00;2.7;99.9
49901;DHT22;35789;48.414;12.768;2024-01-30T13:05:00;2.8;99.9
49901;DHT22;35789;48.414;12.768;2024-01-30T13:10:00;2.8;99.9
49901;DHT22;35789;48.414;12.768;2024-01-30T13:15:00;2.9;99.9
49901;DHT22;35789;48.414;12.768;2024-01-30T13:20:00;3.0;99.9
49901;DHT22;35789;48.414;12.768;2024-01-30T13:25:00;3.0;99.9
49901;DHT22;35789;48.414;12.768;2024-01-30T13:30:00;3.0;99.9
49901;DHT22;35789;48.414;12.768;2024-01-30T13:35:00;3.0;99.9
49901;DHT22;35789;48.414;12.768;2024-01-30T13:40:00;3.0;99.9
49901;DHT22;35789;48.414;12.768;2024-01-30T13:45:00;3.0;99.9
49901;DHT22;35789;48.414;12.768;2024-01-30T13:50:00;3.1;99.9
49901;DHT22;35789;48.414;12.768;2024-01-30T13:55:00;3.2;99.9
49901;DHT22;35789;48.414;12.768;2024-01-30T14:00:00;3.3;99.9
49901;DHT22;35789;48.414;12.768;2024-01-30T14:05:00;3.4;99.9
49901;DHT22;35789;48.414;12.768;2024-01-30T14:10:00;3.5;99.9
49901;DHT22;35789;48.414;12.768;2024-01-30T14:15:00;3.5;99.9
49901;DHT22;35789;48.414;12.768;2024-01-30T14:20:00;3.4;99.9
49901;DHT22;35789;48.414;12.768;2024-01-30T14:25:00;3.4;99.9
49901;DHT22;35789;48.414;12.768;2024-01-30T14:30:00;3.3;99.9
49901;DHT22;35789;48.414;12.768;2024-01-30T14:35:00;3.2;99.9
49901;DHT22;35789;48.414;12.768;2024-01-30T14:40:00;3.2;99.9
49901;DHT22;35789;48.414;12.768;2024-01-30T14:45:00;3.1;99.9
49901;DHT22;35789;48.414;12.768;2024-01-30T14:50:00;2.9;99.9
49901;DHT22;35789;48.414;12.768;2024-01-30T14:55:00;2.9;99.9
49901;DHT22;35789;48.414;12.768;2024-01-30T15:00:00;2.8;99.9
49901;DHT22;35789;48.414;12.768;2024-01-30T15:05:00;2.8;99.9
49901;DHT22;35789;48.414;12.768;2024-01-30T15:10:01;2.7;99.9
49901;DHT22;35789;48.414;12.768;2024-01-30T15:15:00;2.6;99.9
49901;DHT22;35789;48.414;12.768;2024-01-30T15:20:00;2.5;99.9
49901;DHT22;35789;48.414;12.768;2024-01-30T15:25:00;2.4;99.9
49901;DHT22;35789;48.414;12.768;2024-01-30T15:30:00;2.4;99.9
49901;DHT22;35789;48.414;12.768;2024-01-30T15:35:00;2.3;99.9
49901;DHT22;35789;48.414;12.768;2024-01-30T15:40:00;2.2;99.9
49901;DHT22;35789;48.414;12.768;2024-01-30T15:45:01;2.1;99.9
49901;DHT22;35789;48.414;12.768;2024-01-30T15:50:00;2.1;99.9
49901;DHT22;35789;48.414;12.768;2024-01-30T15:55:00;2.0;99.9
49901;DHT22;35789;48.414;12.768;2024-01-30T16:00:00;1.9;99.9
49901;DHT22;35789;48.414;12.768;2024-01-30T16:05:00;1.8;99.9
49901;DHT22;35789;48.414;12.768;2024-01-30T16:10:00;1.7;99.9
49901;DHT22;35789;48.414;12.768;2024-01-30T16:15:00;1.6;99.9
49901;DHT22;35789;48.414;12.768;2024-01-30T16:20:00;1.6;99.9
49901;DHT22;35789;48.414;12.768;2024-01-30T16:25:00;1.5;99.9
49901;DHT22;35789;48.414;12.768;2024-01-30T16:30:00;1.4;99.9
49901;DHT22;35789;48.414;12.768;2024-01-30T16:35:00;1.4;99.9
49901;DHT22;35789;48.414;12.768;2024-01-30T16:40:00;1.3;99.9
49901;DHT22;35789;48.414;12.768;2024-01-30T16:45:00;1.3;99.9
49901;DHT22;35789;48.414;12.768;2024-01-30T16:50:00;1.2;99.9
49901;DHT22;35789;48.414;12.768;2024-01-30T16:55:00;1.2;99.9
49901;DHT22;35789;48.414;12.768;2024-01-30T17:00:00;1.2;99.9
49901;DHT22;35789;48.414;12.768;2024-01-30T17:05:00;1.1;99.9
49901;DHT22;35789;48.414;12.768;2024-01-30T17:10:00;1.1;99.9
49901;DHT22;35789;48.414;12.768;2024-01-30T17:15:00;1.0;99.9
49901;DHT22;35789;48.414;12.768;2024-01-30T17:20:00;1.0;99.9
49901;DHT22;35789;48.414;12.768;2024-01-30T17:25:00;0.9;99.9
49901;DHT22;35789;48.414;12.768;2024-01-30T17:30:00;0.8;99.9
49901;DHT22;35789;48.414;12.768;2024-01-30T17:35:00;0.8;99.9
49901;DHT22;35789;48.414;12.768;2024-01-30T17:40:00;0.7;99.9
49901;DHT22;35789;48.414;12.768;2024-01-30T17:45:00;0.6;99.9
49901;DHT22;35789;48.414;12.768;2024-01-30T17:55:00;0.5;99.9
49901;DHT22;35789;48.414;12.768;2024-01-30T18:00:00;0.4;99.9
49901;DHT22;35789;48.414;12.768;2024-01-30T18:05:01;0.4;99.9
49901;DHT22;35789;48.414;12.768;2024-01-30T18:10:00;0.3;99.9
49901;DHT22;35789;48.414;12.768;2024-01-30T18:15:00;0.2;99.9
49901;DHT22;35789;48.414;12.768;2024-01-30T18:20:00;0.2;99.9
49901;DHT22;35789;48.414;12.768;2024-01-30T18:25:00;0.2;99.9
49901;DHT22;35789;48.414;12.768;2024-01-30T18:30:00;0.3;99.9
49901;DHT22;35789;48.414;12.768;2024-01-30T18:35:00;0.3;99.9
49901;DHT22;35789;48.414;12.768;2024-01-30T18:40:00;0.3;99.9
49901;DHT22;35789;48.414;12.768;2024-01-30T18:45:00;0.4;99.9
49901;DHT22;35789;48.414;12.768;2024-01-30T18:50:00;0.4;99.9
49901;DHT22;35789;48.414;12.768;2024-01-30T18:55:00;0.4;99.9
49901;DHT22;35789;48.414;12.768;2024-01-30T19:00:00;0.4;99.9
49901;DHT22;35789;48.414;12.768;2024-01-30T19:05:00;0.4;99.9
49901;DHT22;35789;48.414;12.768;2024-01-30T19:10:00;0.4;99.9
49901;DHT22;35789;48.414;12.768;2024-01-30T19:15:00;0.4;99.9
49901;DHT22;35789;48.414;12.768;2024-01-30T19:20:00;0.4;99.9
49901;DHT22;35789;48.414;12.768;2024-01-30T19:25:00;0.4;99.9
49901;DHT22;35789;48.414;12.768;2024-01-30T19:30:02;0.3;99.9
49901;DHT22;35789;48.414;12.768;2024-01-30T19:35:00;0.3;99.9
49901;DHT22;35789;48.414;12.768;2024-01-30T19:40:00;0.3;99.9
49901;DHT22;35789;48.414;12.768;2024-01-30T19:45:00;0.3;99.9
49901;DHT22;35789;48.414;12.768;2024-01-30T19:50:00;0.3;99.9
49901;DHT22;35789;48.414;12.768;2024-01-30T19:55:00;0.2;99.9
49901;DHT22;35789;48.414;12.768;2024-01-30T20:00:00;0.3;99.9
49901;DHT22;35789;48.414;12.768;2024-01-30T20:05:00;0.2;99.9
49901;DHT22;35789;48.414;12.768;2024-01-30T20:10:00;0.1;99.9
49901;DHT22;35789;48.414;12.768;2024-01-30T20:15:00;0.1;99.9
49901;DHT22;35789;48.414;12.768;2024-01-30T20:20:00;0.0;99.9
49901;DHT22;35789;48.414;12.768;2024-01-30T20:25:00;-0.2;99.9
49901;DHT22;35789;48.414;12.768;2024-01-30T20:30:00;-0.3;99.9
49901;DHT22;35789;48.414;12.768;2024-01-30T20:35:00;-0.3;99.9
49901;DHT22;35789;48.414;12.768;2024-01-30T20:40:00;-0.4;99.9
49901;DHT22;35789;48.414;12.768;2024-01-30T20:45:01;-0.4;99.9
49901;DHT22;35789;48.414;12.768;2024-01-30T20:50:00;-0.4;99.9
49901;DHT22;35789;48.414;12.768;2024-01-30T20:55:00;-0.5;99.9
49901;DHT22;35789;48.414;12.768;2024-01-30T21:00:00;-0.5;99.9
49901;DHT22;35789;48.414;12.768;2024-01-30T21:05:00;-0.5;99.9
49901;DHT22;35789;48.414;12.768;2024-01-30T21:10:00;-0.5;99.9
49901;DHT22;35789;48.414;12.768;2024-01-30T21:15:00;-0.5;99.9
49901;DHT22;35789;48.414;12.768;2024-01-30T21:20:00;-0.6;99.9
49901;DHT22;35789;48.414;12.768;2024-01-30T21:25:01;-0.6;99.9
49901;DHT22;35789;48.414;12.768;2024-01-30T21:30:00;-0.6;99.9
49901;DHT22;35789;48.414;12.768;2024-01-30T21:35:00;-0.6;99.9
49901;DHT22;35789;48.414;12.768;2024-01-30T21:40:00;-0.6;99.9
49901;DHT22;35789;48.414;12.768;2024-01-30T21:45:00;-0.6;99.9
49901;DHT22;35789;48.414;12.768;2024-01-30T21:50:00;-0.6;99.9
49901;DHT22;35789;48.414;12.768;2024-01-30T21:55:00;-0.6;99.9
49901;DHT22;35789;48.414;12.768;2024-01-30T22:00:00;-0.6;99.9
49901;DHT22;35789;48.414;12.768;2024-01-30T22:05:00;-0.6;99.9
49901;DHT22;35789;48.414;12.768;2024-01-30T22:10:00;-0.6;99.9
49901;DHT22;35789;48.414;12.768;2024-01-30T22:15:00;-0.6;99.9
49901;DHT22;35789;48.414;12.768;2024-01-30T22:20:01;-0.6;99.9
49901;DHT22;35789;48.414;12.768;2024-01-30T22:25:00;-0.6;99.9
49901;DHT22;35789;48.414;12.768;2024-01-30T22:30:00;-0.6;99.9
49901;DHT22;35789;48.414;12.768;2024-01-30T22:35:00;-0.6;99.9
49901;DHT22;35789;48.414;12.768;2024-01-30T22:40:00;-0.6;99.9
49901;DHT22;35789;48.414;12.768;2024-01-30T22:45:00;-0.6;99.9
49901;DHT22;35789;48.414;12.768;2024-01-30T22:50:00;-0.7;99.9
49901;DHT22;35789;48.414;12.768;2024-01-30T22:55:00;-0.7;99.9
49901;DHT22;35789;48.414;12.768;2024-01-30T23:00:00;-0.7;99.9
49901;DHT22;35789;48.414;12.768;2024-01-30T23:05:00;-0.6;99.9
49901;DHT22;35789;48.414;12.768;2024-01-30T23:10:00;-0.7;99.9
49901;DHT22;35789;48.414;12.768;2024-01-30T23:15:00;-0.7;99.9
49901;DHT22;35789;48.414;12.768;2024-01-30T23:20:00;-0.7;99.9
49901;DHT22;35789;48.414;12.768;2024-01-30T23:25:00;-0.6;99.9
49901;DHT22;35789;48.414;12.768;2024-01-30T23:30:00;-0.6;99.9
49901;DHT22;35789;48.414;12.768;2024-01-30T23:35:00;-0.6;99.9
49901;DHT22;35789;48.414;12.768;2024-01-30T23:40:00;-0.5;99.9
49901;DHT22;35789;48.414;12.768;2024-01-30T23:45:00;-0.5;99.9
49901;DHT22;35789;48.414;12.768;2024-01-30T23:50:00;-0.5;99.9
49901;DHT22;35789;48.414;12.768;2024-01-30T23:55:00;-0.5;99.9
